sensor_id;sensor_type;location;lat;lon;timestamp;P1;durP1;ratioP1;P2;durP2;ratioP2
11010;SDS011;5558;42.702;23.178;2023-01-23T00:01:09;6.60;;;5.67;;
11010;SDS011;5558;42.702;23.178;2023-01-23T00:03:37;7.93;;;6.10;;
11010;SDS011;5558;42.702;23.178;2023-01-23T00:06:04;7.80;;;5.93;;
11010;SDS011;5558;42.702;23.178;2023-01-23T00:08:33;6.33;;;5.67;;
11010;SDS011;5558;42.702;23.178;2023-01-23T00:11:02;5.63;;;5.10;;
11010;SDS011;5558;42.702;23.178;2023-01-23T00:13:30;6.13;;;5.40;;
11010;SDS011;5558;42.702;23.178;2023-01-23T00:15:58;6.67;;;5.00;;
11010;SDS011;5558;42.702;23.178;2023-01-23T00:18:28;5.90;;;4.73;;
11010;SDS011;5558;42.702;23.178;2023-01-23T00:20:55;6.17;;;4.87;;
11010;SDS011;5558;42.702;23.178;2023-01-23T00:23:22;5.27;;;4.73;;
11010;SDS011;5558;42.702;23.178;2023-01-23T00:25:49;6.03;;;5.07;;
11010;SDS011;5558;42.702;23.178;2023-01-23T00:28:16;6.77;;;5.47;;
11010;SDS011;5558;42.702;23.178;2023-01-23T00:30:42;6.30;;;5.70;;
11010;SDS011;5558;42.702;23.178;2023-01-23T00:33:10;7.83;;;6.60;;
11010;SDS011;5558;42.702;23.178;2023-01-23T00:35:37;7.30;;;6.07;;
11010;SDS011;5558;42.702;23.178;2023-01-23T00:38:04;6.40;;;5.80;;
11010;SDS011;5558;42.702;23.178;2023-01-23T00:40:30;7.03;;;6.27;;
11010;SDS011;5558;42.702;23.178;2023-01-23T00:42:57;7.50;;;6.13;;
11010;SDS011;5558;42.702;23.178;2023-01-23T00:45:24;6.83;;;6.13;;
11010;SDS011;5558;42.702;23.178;2023-01-23T00:47:50;7.13;;;6.37;;
11010;SDS011;5558;42.702;23.178;2023-01-23T00:50:19;7.57;;;6.67;;
11010;SDS011;5558;42.702;23.178;2023-01-23T00:52:45;8.03;;;6.67;;
11010;SDS011;5558;42.702;23.178;2023-01-23T00:55:12;7.87;;;6.10;;
11010;SDS011;5558;42.702;23.178;2023-01-23T00:57:38;7.60;;;6.27;;
11010;SDS011;5558;42.702;23.178;2023-01-23T01:00:06;6.87;;;6.17;;
11010;SDS011;5558;42.702;23.178;2023-01-23T01:02:33;6.20;;;5.60;;
11010;SDS011;5558;42.702;23.178;2023-01-23T01:05:00;6.43;;;5.67;;
11010;SDS011;5558;42.702;23.178;2023-01-23T01:07:28;6.93;;;5.50;;
11010;SDS011;5558;42.702;23.178;2023-01-23T01:09:55;7.13;;;5.50;;
11010;SDS011;5558;42.702;23.178;2023-01-23T01:12:21;6.03;;;5.17;;
11010;SDS011;5558;42.702;23.178;2023-01-23T01:14:48;5.33;;;4.83;;
11010;SDS011;5558;42.702;23.178;2023-01-23T01:17:15;5.77;;;4.70;;
11010;SDS011;5558;42.702;23.178;2023-01-23T01:19:42;5.03;;;4.53;;
11010;SDS011;5558;42.702;23.178;2023-01-23T01:22:08;5.53;;;4.53;;
11010;SDS011;5558;42.702;23.178;2023-01-23T01:24:36;5.43;;;4.93;;
11010;SDS011;5558;42.702;23.178;2023-01-23T01:27:06;5.43;;;4.80;;
11010;SDS011;5558;42.702;23.178;2023-01-23T01:29:32;5.47;;;4.87;;
11010;SDS011;5558;42.702;23.178;2023-01-23T01:31:59;5.33;;;4.70;;
11010;SDS011;5558;42.702;23.178;2023-01-23T01:34:26;5.07;;;4.57;;
11010;SDS011;5558;42.702;23.178;2023-01-23T01:36:53;4.90;;;4.47;;
11010;SDS011;5558;42.702;23.178;2023-01-23T01:39:19;4.97;;;4.30;;
11010;SDS011;5558;42.702;23.178;2023-01-23T01:41:47;4.40;;;4.00;;
11010;SDS011;5558;42.702;23.178;2023-01-23T01:44:14;5.03;;;4.03;;
11010;SDS011;5558;42.702;23.178;2023-01-23T01:46:43;4.70;;;4.20;;
11010;SDS011;5558;42.702;23.178;2023-01-23T01:49:10;4.30;;;3.90;;
11010;SDS011;5558;42.702;23.178;2023-01-23T01:51:40;5.17;;;3.50;;
11010;SDS011;5558;42.702;23.178;2023-01-23T01:54:13;5.37;;;4.23;;
11010;SDS011;5558;42.702;23.178;2023-01-23T01:56:48;4.63;;;3.87;;
11010;SDS011;5558;42.702;23.178;2023-01-23T01:59:17;4.10;;;3.70;;
11010;SDS011;5558;42.702;23.178;2023-01-23T02:01:47;3.67;;;3.37;;
11010;SDS011;5558;42.702;23.178;2023-01-23T02:04:18;4.30;;;3.57;;
11010;SDS011;5558;42.702;23.178;2023-01-23T02:06:45;4.20;;;3.70;;
11010;SDS011;5558;42.702;23.178;2023-01-23T02:09:14;4.30;;;3.57;;
11010;SDS011;5558;42.702;23.178;2023-01-23T02:11:44;4.90;;;3.90;;
11010;SDS011;5558;42.702;23.178;2023-01-23T02:14:12;4.13;;;3.73;;
11010;SDS011;5558;42.702;23.178;2023-01-23T02:16:39;4.00;;;3.53;;
11010;SDS011;5558;42.702;23.178;2023-01-23T02:19:17;4.67;;;3.80;;
11010;SDS011;5558;42.702;23.178;2023-01-23T02:21:51;3.70;;;3.40;;
11010;SDS011;5558;42.702;23.178;2023-01-23T02:24:38;4.67;;;4.00;;
11010;SDS011;5558;42.702;23.178;2023-01-23T02:27:10;5.30;;;3.83;;
11010;SDS011;5558;42.702;23.178;2023-01-23T02:29:40;4.53;;;4.07;;
11010;SDS011;5558;42.702;23.178;2023-01-23T02:32:08;5.10;;;4.40;;
11010;SDS011;5558;42.702;23.178;2023-01-23T02:34:35;5.33;;;4.80;;
11010;SDS011;5558;42.702;23.178;2023-01-23T02:37:02;4.50;;;4.10;;
11010;SDS011;5558;42.702;23.178;2023-01-23T02:39:32;4.97;;;4.47;;
11010;SDS011;5558;42.702;23.178;2023-01-23T02:41:59;5.03;;;4.20;;
11010;SDS011;5558;42.702;23.178;2023-01-23T02:44:28;4.80;;;4.30;;
11010;SDS011;5558;42.702;23.178;2023-01-23T02:46:57;6.47;;;4.63;;
11010;SDS011;5558;42.702;23.178;2023-01-23T02:49:25;4.97;;;4.10;;
11010;SDS011;5558;42.702;23.178;2023-01-23T02:51:53;6.27;;;4.20;;
11010;SDS011;5558;42.702;23.178;2023-01-23T02:54:21;4.83;;;4.10;;
11010;SDS011;5558;42.702;23.178;2023-01-23T02:56:48;4.17;;;3.77;;
11010;SDS011;5558;42.702;23.178;2023-01-23T02:59:15;5.53;;;4.47;;
11010;SDS011;5558;42.702;23.178;2023-01-23T03:02:01;5.50;;;4.67;;
11010;SDS011;5558;42.702;23.178;2023-01-23T03:04:29;5.07;;;4.57;;
11010;SDS011;5558;42.702;23.178;2023-01-23T03:06:56;4.47;;;4.00;;
11010;SDS011;5558;42.702;23.178;2023-01-23T03:09:23;4.80;;;4.30;;
11010;SDS011;5558;42.702;23.178;2023-01-23T03:11:50;5.70;;;4.27;;
11010;SDS011;5558;42.702;23.178;2023-01-23T03:14:18;4.53;;;4.13;;
11010;SDS011;5558;42.702;23.178;2023-01-23T03:16:46;4.77;;;4.13;;
11010;SDS011;5558;42.702;23.178;2023-01-23T03:19:17;6.10;;;4.90;;
11010;SDS011;5558;42.702;23.178;2023-01-23T03:21:45;5.13;;;4.40;;
11010;SDS011;5558;42.702;23.178;2023-01-23T03:24:12;5.37;;;4.50;;
11010;SDS011;5558;42.702;23.178;2023-01-23T03:26:40;4.83;;;4.33;;
11010;SDS011;5558;42.702;23.178;2023-01-23T03:29:09;5.43;;;4.47;;
11010;SDS011;5558;42.702;23.178;2023-01-23T03:31:58;5.07;;;3.80;;
11010;SDS011;5558;42.702;23.178;2023-01-23T03:34:26;5.00;;;3.67;;
11010;SDS011;5558;42.702;23.178;2023-01-23T03:36:53;4.60;;;3.80;;
11010;SDS011;5558;42.702;23.178;2023-01-23T03:39:20;4.30;;;3.70;;
11010;SDS011;5558;42.702;23.178;2023-01-23T03:42:05;3.83;;;3.33;;
11010;SDS011;5558;42.702;23.178;2023-01-23T03:44:32;4.23;;;3.83;;
11010;SDS011;5558;42.702;23.178;2023-01-23T03:46:58;4.20;;;3.77;;
11010;SDS011;5558;42.702;23.178;2023-01-23T03:49:27;3.83;;;3.37;;
11010;SDS011;5558;42.702;23.178;2023-01-23T03:51:53;4.47;;;3.63;;
11010;SDS011;5558;42.702;23.178;2023-01-23T03:54:20;3.80;;;3.40;;
11010;SDS011;5558;42.702;23.178;2023-01-23T03:56:47;3.70;;;3.30;;
11010;SDS011;5558;42.702;23.178;2023-01-23T03:59:13;4.30;;;3.40;;
11010;SDS011;5558;42.702;23.178;2023-01-23T04:01:40;3.77;;;3.40;;
11010;SDS011;5558;42.702;23.178;2023-01-23T04:04:07;4.83;;;3.87;;
11010;SDS011;5558;42.702;23.178;2023-01-23T04:06:35;4.37;;;3.87;;
11010;SDS011;5558;42.702;23.178;2023-01-23T04:09:02;5.50;;;4.00;;
11010;SDS011;5558;42.702;23.178;2023-01-23T04:11:29;5.10;;;4.30;;
11010;SDS011;5558;42.702;23.178;2023-01-23T04:13:55;4.77;;;3.97;;
11010;SDS011;5558;42.702;23.178;2023-01-23T04:16:22;3.87;;;3.53;;
11010;SDS011;5558;42.702;23.178;2023-01-23T04:18:49;5.20;;;4.40;;
11010;SDS011;5558;42.702;23.178;2023-01-23T04:21:18;4.93;;;4.43;;
11010;SDS011;5558;42.702;23.178;2023-01-23T04:23:46;5.00;;;4.23;;
11010;SDS011;5558;42.702;23.178;2023-01-23T04:26:13;5.20;;;4.53;;
11010;SDS011;5558;42.702;23.178;2023-01-23T04:28:40;4.73;;;4.23;;
11010;SDS011;5558;42.702;23.178;2023-01-23T04:31:07;4.77;;;4.27;;
11010;SDS011;5558;42.702;23.178;2023-01-23T04:33:34;5.03;;;4.40;;
11010;SDS011;5558;42.702;23.178;2023-01-23T04:36:01;5.50;;;4.60;;
11010;SDS011;5558;42.702;23.178;2023-01-23T04:38:29;6.23;;;4.80;;
11010;SDS011;5558;42.702;23.178;2023-01-23T04:40:58;5.23;;;4.57;;
11010;SDS011;5558;42.702;23.178;2023-01-23T04:43:25;4.87;;;4.40;;
11010;SDS011;5558;42.702;23.178;2023-01-23T04:45:52;6.47;;;4.30;;
11010;SDS011;5558;42.702;23.178;2023-01-23T04:48:21;4.63;;;4.17;;
11010;SDS011;5558;42.702;23.178;2023-01-23T04:50:49;4.50;;;4.10;;
11010;SDS011;5558;42.702;23.178;2023-01-23T04:53:16;4.60;;;4.20;;
11010;SDS011;5558;42.702;23.178;2023-01-23T04:55:45;4.20;;;3.80;;
11010;SDS011;5558;42.702;23.178;2023-01-23T04:58:14;3.80;;;3.50;;
11010;SDS011;5558;42.702;23.178;2023-01-23T05:00:41;3.50;;;3.20;;
11010;SDS011;5558;42.702;23.178;2023-01-23T05:03:08;3.87;;;3.50;;
11010;SDS011;5558;42.702;23.178;2023-01-23T05:05:34;3.90;;;3.50;;
11010;SDS011;5558;42.702;23.178;2023-01-23T05:08:01;3.73;;;3.33;;
11010;SDS011;5558;42.702;23.178;2023-01-23T05:10:28;4.27;;;3.47;;
11010;SDS011;5558;42.702;23.178;2023-01-23T05:12:55;3.80;;;3.40;;
11010;SDS011;5558;42.702;23.178;2023-01-23T05:15:23;3.97;;;3.40;;
11010;SDS011;5558;42.702;23.178;2023-01-23T05:17:50;4.77;;;3.80;;
11010;SDS011;5558;42.702;23.178;2023-01-23T05:20:17;4.63;;;3.97;;
11010;SDS011;5558;42.702;23.178;2023-01-23T05:22:44;4.73;;;3.97;;
11010;SDS011;5558;42.702;23.178;2023-01-23T05:25:17;5.20;;;4.17;;
11010;SDS011;5558;42.702;23.178;2023-01-23T05:27:45;5.57;;;4.30;;
11010;SDS011;5558;42.702;23.178;2023-01-23T05:30:12;5.70;;;4.40;;
11010;SDS011;5558;42.702;23.178;2023-01-23T05:32:40;6.47;;;4.80;;
11010;SDS011;5558;42.702;23.178;2023-01-23T05:35:08;4.80;;;4.20;;
11010;SDS011;5558;42.702;23.178;2023-01-23T05:37:35;5.60;;;4.50;;
11010;SDS011;5558;42.702;23.178;2023-01-23T05:40:02;5.67;;;4.43;;
11010;SDS011;5558;42.702;23.178;2023-01-23T05:42:29;5.50;;;4.47;;
11010;SDS011;5558;42.702;23.178;2023-01-23T05:44:56;5.40;;;4.50;;
11010;SDS011;5558;42.702;23.178;2023-01-23T05:47:23;4.67;;;4.17;;
11010;SDS011;5558;42.702;23.178;2023-01-23T05:49:51;5.17;;;4.17;;
11010;SDS011;5558;42.702;23.178;2023-01-23T05:52:17;5.90;;;4.20;;
11010;SDS011;5558;42.702;23.178;2023-01-23T05:54:45;3.77;;;3.37;;
11010;SDS011;5558;42.702;23.178;2023-01-23T05:57:12;4.00;;;3.60;;
11010;SDS011;5558;42.702;23.178;2023-01-23T05:59:39;5.23;;;3.97;;
11010;SDS011;5558;42.702;23.178;2023-01-23T06:02:06;3.73;;;3.27;;
11010;SDS011;5558;42.702;23.178;2023-01-23T06:04:32;3.90;;;3.40;;
11010;SDS011;5558;42.702;23.178;2023-01-23T06:07:00;3.30;;;3.00;;
11010;SDS011;5558;42.702;23.178;2023-01-23T06:09:27;4.27;;;3.17;;
11010;SDS011;5558;42.702;23.178;2023-01-23T06:11:54;3.70;;;3.40;;
11010;SDS011;5558;42.702;23.178;2023-01-23T06:14:21;3.40;;;2.80;;
11010;SDS011;5558;42.702;23.178;2023-01-23T06:16:47;3.30;;;3.00;;
11010;SDS011;5558;42.702;23.178;2023-01-23T06:19:14;3.50;;;3.20;;
11010;SDS011;5558;42.702;23.178;2023-01-23T06:21:41;3.70;;;3.30;;
11010;SDS011;5558;42.702;23.178;2023-01-23T06:24:09;3.70;;;3.23;;
11010;SDS011;5558;42.702;23.178;2023-01-23T06:26:35;3.80;;;3.27;;
11010;SDS011;5558;42.702;23.178;2023-01-23T06:29:02;3.40;;;3.10;;
11010;SDS011;5558;42.702;23.178;2023-01-23T06:31:29;2.87;;;2.67;;
11010;SDS011;5558;42.702;23.178;2023-01-23T06:33:57;3.20;;;2.90;;
11010;SDS011;5558;42.702;23.178;2023-01-23T06:36:25;2.97;;;2.77;;
11010;SDS011;5558;42.702;23.178;2023-01-23T06:38:51;3.10;;;2.80;;
11010;SDS011;5558;42.702;23.178;2023-01-23T06:41:20;2.90;;;2.70;;
11010;SDS011;5558;42.702;23.178;2023-01-23T06:43:46;3.57;;;2.80;;
11010;SDS011;5558;42.702;23.178;2023-01-23T06:46:13;3.30;;;3.00;;
11010;SDS011;5558;42.702;23.178;2023-01-23T06:48:40;3.40;;;3.10;;
11010;SDS011;5558;42.702;23.178;2023-01-23T06:51:06;4.00;;;3.10;;
11010;SDS011;5558;42.702;23.178;2023-01-23T06:53:33;5.20;;;3.50;;
11010;SDS011;5558;42.702;23.178;2023-01-23T06:56:00;3.80;;;3.50;;
11010;SDS011;5558;42.702;23.178;2023-01-23T06:58:28;4.30;;;3.50;;
11010;SDS011;5558;42.702;23.178;2023-01-23T07:00:55;4.67;;;3.57;;
11010;SDS011;5558;42.702;23.178;2023-01-23T07:03:22;4.90;;;4.17;;
11010;SDS011;5558;42.702;23.178;2023-01-23T07:05:49;5.33;;;4.10;;
11010;SDS011;5558;42.702;23.178;2023-01-23T07:08:16;5.73;;;4.80;;
11010;SDS011;5558;42.702;23.178;2023-01-23T07:10:43;5.80;;;4.70;;
11010;SDS011;5558;42.702;23.178;2023-01-23T07:13:10;6.97;;;5.23;;
11010;SDS011;5558;42.702;23.178;2023-01-23T07:15:38;7.10;;;5.80;;
11010;SDS011;5558;42.702;23.178;2023-01-23T07:18:05;7.47;;;5.57;;
11010;SDS011;5558;42.702;23.178;2023-01-23T07:20:32;6.80;;;5.73;;
11010;SDS011;5558;42.702;23.178;2023-01-23T07:22:58;7.53;;;6.20;;
11010;SDS011;5558;42.702;23.178;2023-01-23T07:25:25;8.70;;;6.30;;
11010;SDS011;5558;42.702;23.178;2023-01-23T07:27:52;8.67;;;6.80;;
11010;SDS011;5558;42.702;23.178;2023-01-23T07:30:18;8.47;;;6.80;;
11010;SDS011;5558;42.702;23.178;2023-01-23T07:32:47;8.80;;;6.73;;
11010;SDS011;5558;42.702;23.178;2023-01-23T07:35:13;8.73;;;6.97;;
11010;SDS011;5558;42.702;23.178;2023-01-23T07:37:40;9.40;;;6.87;;
11010;SDS011;5558;42.702;23.178;2023-01-23T07:40:07;8.17;;;7.00;;
11010;SDS011;5558;42.702;23.178;2023-01-23T07:42:35;11.33;;;8.60;;
11010;SDS011;5558;42.702;23.178;2023-01-23T07:45:03;13.00;;;9.70;;
11010;SDS011;5558;42.702;23.178;2023-01-23T07:47:30;12.07;;;9.43;;
11010;SDS011;5558;42.702;23.178;2023-01-23T07:49:58;12.37;;;9.27;;
11010;SDS011;5558;42.702;23.178;2023-01-23T07:52:25;13.17;;;9.63;;
11010;SDS011;5558;42.702;23.178;2023-01-23T07:54:51;12.40;;;9.50;;
11010;SDS011;5558;42.702;23.178;2023-01-23T07:57:18;13.00;;;9.30;;
11010;SDS011;5558;42.702;23.178;2023-01-23T07:59:45;11.90;;;8.70;;
11010;SDS011;5558;42.702;23.178;2023-01-23T08:02:12;11.90;;;8.53;;
11010;SDS011;5558;42.702;23.178;2023-01-23T08:04:39;12.53;;;9.43;;
11010;SDS011;5558;42.702;23.178;2023-01-23T11:44:07;11.43;;;8.70;;
11010;SDS011;5558;42.702;23.178;2023-01-23T11:46:45;10.97;;;8.60;;
11010;SDS011;5558;42.702;23.178;2023-01-23T11:49:29;10.70;;;8.27;;
11010;SDS011;5558;42.702;23.178;2023-01-23T11:52:11;9.90;;;8.07;;
11010;SDS011;5558;42.702;23.178;2023-01-23T11:54:54;9.27;;;7.87;;
11010;SDS011;5558;42.702;23.178;2023-01-23T11:57:32;10.73;;;8.70;;
11010;SDS011;5558;42.702;23.178;2023-01-23T12:00:15;11.80;;;9.07;;
11010;SDS011;5558;42.702;23.178;2023-01-23T12:02:58;9.10;;;8.00;;
11010;SDS011;5558;42.702;23.178;2023-01-23T12:05:48;11.07;;;8.70;;
11010;SDS011;5558;42.702;23.178;2023-01-23T12:08:29;9.33;;;7.83;;
11010;SDS011;5558;42.702;23.178;2023-01-23T12:11:07;9.77;;;8.17;;
11010;SDS011;5558;42.702;23.178;2023-01-23T12:13:57;8.93;;;8.03;;
11010;SDS011;5558;42.702;23.178;2023-01-23T12:16:36;10.67;;;9.00;;
11010;SDS011;5558;42.702;23.178;2023-01-23T12:19:20;10.30;;;8.80;;
11010;SDS011;5558;42.702;23.178;2023-01-23T12:22:03;9.47;;;8.30;;
11010;SDS011;5558;42.702;23.178;2023-01-23T12:24:39;9.60;;;8.20;;
11010;SDS011;5558;42.702;23.178;2023-01-23T12:27:26;10.17;;;8.57;;
11010;SDS011;5558;42.702;23.178;2023-01-23T12:30:09;9.97;;;8.60;;
11010;SDS011;5558;42.702;23.178;2023-01-23T12:32:53;9.37;;;8.37;;
11010;SDS011;5558;42.702;23.178;2023-01-23T12:35:31;10.73;;;9.07;;
11010;SDS011;5558;42.702;23.178;2023-01-23T12:38:09;12.50;;;10.33;;
11010;SDS011;5558;42.702;23.178;2023-01-23T12:40:49;12.63;;;10.63;;
11010;SDS011;5558;42.702;23.178;2023-01-23T12:43:22;11.50;;;9.47;;
11010;SDS011;5558;42.702;23.178;2023-01-23T12:45:59;11.03;;;9.50;;
11010;SDS011;5558;42.702;23.178;2023-01-23T12:48:34;12.73;;;10.43;;
11010;SDS011;5558;42.702;23.178;2023-01-23T12:51:07;13.27;;;10.77;;
11010;SDS011;5558;42.702;23.178;2023-01-23T12:53:40;10.80;;;9.17;;
11010;SDS011;5558;42.702;23.178;2023-01-23T12:56:10;12.33;;;10.00;;
11010;SDS011;5558;42.702;23.178;2023-01-23T12:58:41;10.77;;;9.67;;
11010;SDS011;5558;42.702;23.178;2023-01-23T13:01:16;10.63;;;9.37;;
11010;SDS011;5558;42.702;23.178;2023-01-23T13:03:59;11.57;;;9.40;;
11010;SDS011;5558;42.702;23.178;2023-01-23T13:06:34;12.10;;;9.90;;
11010;SDS011;5558;42.702;23.178;2023-01-23T13:09:23;12.07;;;9.43;;
11010;SDS011;5558;42.702;23.178;2023-01-23T13:12:00;10.07;;;8.57;;
11010;SDS011;5558;42.702;23.178;2023-01-23T13:14:42;10.23;;;8.97;;
11010;SDS011;5558;42.702;23.178;2023-01-23T13:17:26;10.73;;;9.10;;
11010;SDS011;5558;42.702;23.178;2023-01-23T13:20:09;11.83;;;9.50;;
11010;SDS011;5558;42.702;23.178;2023-01-23T13:23:19;11.67;;;9.23;;
11010;SDS011;5558;42.702;23.178;2023-01-23T13:25:48;11.87;;;9.53;;
11010;SDS011;5558;42.702;23.178;2023-01-23T13:28:29;11.50;;;9.07;;
11010;SDS011;5558;42.702;23.178;2023-01-23T13:30:59;11.27;;;9.10;;
11010;SDS011;5558;42.702;23.178;2023-01-23T13:36:27;10.73;;;9.07;;
11010;SDS011;5558;42.702;23.178;2023-01-23T13:39:00;11.07;;;9.10;;
11010;SDS011;5558;42.702;23.178;2023-01-23T13:41:48;12.50;;;9.67;;
11010;SDS011;5558;42.702;23.178;2023-01-23T13:44:17;11.27;;;10.03;;
11010;SDS011;5558;42.702;23.178;2023-01-23T13:50:05;11.63;;;9.90;;
11010;SDS011;5558;42.702;23.178;2023-01-23T13:52:38;11.83;;;9.70;;
11010;SDS011;5558;42.702;23.178;2023-01-23T13:55:38;10.20;;;8.80;;
11010;SDS011;5558;42.702;23.178;2023-01-23T13:58:24;9.97;;;8.37;;
11010;SDS011;5558;42.702;23.178;2023-01-23T14:00:53;9.60;;;8.20;;
11010;SDS011;5558;42.702;23.178;2023-01-23T14:03:44;9.50;;;8.23;;
11010;SDS011;5558;42.702;23.178;2023-01-23T14:06:34;9.47;;;8.33;;
11010;SDS011;5558;42.702;23.178;2023-01-23T14:09:16;10.37;;;8.37;;
11010;SDS011;5558;42.702;23.178;2023-01-23T14:11:45;9.70;;;8.50;;
11010;SDS011;5558;42.702;23.178;2023-01-23T14:14:13;9.57;;;8.57;;
11010;SDS011;5558;42.702;23.178;2023-01-23T14:16:58;10.73;;;9.40;;
11010;SDS011;5558;42.702;23.178;2023-01-23T14:19:25;9.53;;;8.53;;
11010;SDS011;5558;42.702;23.178;2023-01-23T14:21:54;10.10;;;8.77;;
11010;SDS011;5558;42.702;23.178;2023-01-23T14:24:25;9.70;;;7.90;;
11010;SDS011;5558;42.702;23.178;2023-01-23T14:26:57;9.30;;;8.17;;
11010;SDS011;5558;42.702;23.178;2023-01-23T14:29:26;10.73;;;8.77;;
11010;SDS011;5558;42.702;23.178;2023-01-23T14:31:53;11.07;;;9.40;;
11010;SDS011;5558;42.702;23.178;2023-01-23T14:34:20;12.23;;;9.80;;
11010;SDS011;5558;42.702;23.178;2023-01-23T14:36:49;10.77;;;8.90;;
11010;SDS011;5558;42.702;23.178;2023-01-23T14:39:17;10.77;;;8.97;;
11010;SDS011;5558;42.702;23.178;2023-01-23T14:41:48;11.13;;;9.03;;
11010;SDS011;5558;42.702;23.178;2023-01-23T14:44:18;10.47;;;8.23;;
11010;SDS011;5558;42.702;23.178;2023-01-23T14:46:49;10.50;;;8.70;;
11010;SDS011;5558;42.702;23.178;2023-01-23T14:49:19;9.57;;;8.03;;
11010;SDS011;5558;42.702;23.178;2023-01-23T14:51:54;9.70;;;8.20;;
11010;SDS011;5558;42.702;23.178;2023-01-23T14:54:22;11.20;;;8.87;;
11010;SDS011;5558;42.702;23.178;2023-01-23T14:56:50;10.33;;;8.30;;
11010;SDS011;5558;42.702;23.178;2023-01-23T14:59:22;11.23;;;8.73;;
11010;SDS011;5558;42.702;23.178;2023-01-23T15:01:52;11.17;;;8.93;;
11010;SDS011;5558;42.702;23.178;2023-01-23T15:04:20;11.03;;;9.00;;
11010;SDS011;5558;42.702;23.178;2023-01-23T15:06:49;11.43;;;8.40;;
11010;SDS011;5558;42.702;23.178;2023-01-23T15:09:26;10.07;;;8.93;;
11010;SDS011;5558;42.702;23.178;2023-01-23T15:11:55;10.97;;;9.00;;
11010;SDS011;5558;42.702;23.178;2023-01-23T15:14:31;10.23;;;9.00;;
11010;SDS011;5558;42.702;23.178;2023-01-23T15:17:02;11.07;;;8.57;;
11010;SDS011;5558;42.702;23.178;2023-01-23T15:19:31;11.43;;;9.37;;
11010;SDS011;5558;42.702;23.178;2023-01-23T15:22:05;9.87;;;8.60;;
11010;SDS011;5558;42.702;23.178;2023-01-23T15:24:33;10.33;;;8.27;;
11010;SDS011;5558;42.702;23.178;2023-01-23T15:27:02;9.03;;;8.10;;
11010;SDS011;5558;42.702;23.178;2023-01-23T15:29:31;9.63;;;8.57;;
11010;SDS011;5558;42.702;23.178;2023-01-23T15:31:59;9.37;;;8.33;;
11010;SDS011;5558;42.702;23.178;2023-01-23T15:34:28;9.37;;;8.37;;
11010;SDS011;5558;42.702;23.178;2023-01-23T15:36:57;8.70;;;7.80;;
11010;SDS011;5558;42.702;23.178;2023-01-23T15:39:29;9.60;;;8.13;;
11010;SDS011;5558;42.702;23.178;2023-01-23T15:42:00;8.40;;;7.50;;
11010;SDS011;5558;42.702;23.178;2023-01-23T15:44:29;9.37;;;7.93;;
11010;SDS011;5558;42.702;23.178;2023-01-23T15:46:57;10.43;;;8.33;;
11010;SDS011;5558;42.702;23.178;2023-01-23T15:49:28;9.93;;;8.27;;
11010;SDS011;5558;42.702;23.178;2023-01-23T15:51:55;11.37;;;8.63;;
11010;SDS011;5558;42.702;23.178;2023-01-23T15:54:23;9.13;;;7.63;;
11010;SDS011;5558;42.702;23.178;2023-01-23T15:56:53;9.80;;;8.20;;
11010;SDS011;5558;42.702;23.178;2023-01-23T15:59:20;10.80;;;7.77;;
11010;SDS011;5558;42.702;23.178;2023-01-23T16:01:48;9.87;;;8.00;;
11010;SDS011;5558;42.702;23.178;2023-01-23T16:04:15;9.13;;;7.87;;
11010;SDS011;5558;42.702;23.178;2023-01-23T16:06:42;10.40;;;8.03;;
11010;SDS011;5558;42.702;23.178;2023-01-23T16:09:15;9.63;;;8.37;;
11010;SDS011;5558;42.702;23.178;2023-01-23T16:11:47;10.03;;;8.40;;
11010;SDS011;5558;42.702;23.178;2023-01-23T16:14:14;10.20;;;8.23;;
11010;SDS011;5558;42.702;23.178;2023-01-23T16:16:42;8.67;;;7.00;;
11010;SDS011;5558;42.702;23.178;2023-01-23T16:19:10;10.30;;;7.60;;
11010;SDS011;5558;42.702;23.178;2023-01-23T16:21:37;10.53;;;8.00;;
11010;SDS011;5558;42.702;23.178;2023-01-23T16:24:08;10.53;;;8.00;;
11010;SDS011;5558;42.702;23.178;2023-01-23T16:26:41;9.77;;;7.87;;
11010;SDS011;5558;42.702;23.178;2023-01-23T16:29:10;9.17;;;7.40;;
11010;SDS011;5558;42.702;23.178;2023-01-23T16:31:49;10.07;;;7.20;;
11010;SDS011;5558;42.702;23.178;2023-01-23T16:34:17;8.90;;;7.17;;
11010;SDS011;5558;42.702;23.178;2023-01-23T16:36:44;8.93;;;7.00;;
11010;SDS011;5558;42.702;23.178;2023-01-23T16:39:13;9.60;;;6.77;;
11010;SDS011;5558;42.702;23.178;2023-01-23T16:41:43;8.30;;;6.60;;
11010;SDS011;5558;42.702;23.178;2023-01-23T16:44:10;8.23;;;6.63;;
11010;SDS011;5558;42.702;23.178;2023-01-23T16:46:41;8.20;;;6.33;;
11010;SDS011;5558;42.702;23.178;2023-01-23T16:49:08;8.53;;;6.80;;
11010;SDS011;5558;42.702;23.178;2023-01-23T16:51:36;8.20;;;6.50;;
11010;SDS011;5558;42.702;23.178;2023-01-23T16:54:04;8.00;;;6.00;;
11010;SDS011;5558;42.702;23.178;2023-01-23T16:56:32;8.87;;;6.20;;
11010;SDS011;5558;42.702;23.178;2023-01-23T16:59:02;6.87;;;6.03;;
11010;SDS011;5558;42.702;23.178;2023-01-23T17:01:30;8.37;;;6.43;;
11010;SDS011;5558;42.702;23.178;2023-01-23T17:04:01;7.50;;;5.80;;
11010;SDS011;5558;42.702;23.178;2023-01-23T17:06:28;8.10;;;6.50;;
11010;SDS011;5558;42.702;23.178;2023-01-23T17:08:57;7.77;;;6.23;;
11010;SDS011;5558;42.702;23.178;2023-01-23T17:11:25;7.37;;;6.27;;
11010;SDS011;5558;42.702;23.178;2023-01-23T17:13:56;7.87;;;6.30;;
11010;SDS011;5558;42.702;23.178;2023-01-23T17:16:24;8.73;;;6.43;;
11010;SDS011;5558;42.702;23.178;2023-01-23T17:18:51;7.63;;;6.13;;
11010;SDS011;5558;42.702;23.178;2023-01-23T17:21:19;9.40;;;6.97;;
11010;SDS011;5558;42.702;23.178;2023-01-23T17:23:48;9.00;;;7.03;;
11010;SDS011;5558;42.702;23.178;2023-01-23T17:26:17;8.50;;;7.10;;
11010;SDS011;5558;42.702;23.178;2023-01-23T17:28:44;7.90;;;6.60;;
11010;SDS011;5558;42.702;23.178;2023-01-23T17:31:14;10.10;;;7.93;;
11010;SDS011;5558;42.702;23.178;2023-01-23T17:33:44;12.37;;;9.33;;
11010;SDS011;5558;42.702;23.178;2023-01-23T17:36:11;12.60;;;9.60;;
11010;SDS011;5558;42.702;23.178;2023-01-23T17:38:38;12.50;;;9.10;;
11010;SDS011;5558;42.702;23.178;2023-01-23T17:41:07;13.10;;;9.97;;
11010;SDS011;5558;42.702;23.178;2023-01-23T17:43:39;13.63;;;9.70;;
11010;SDS011;5558;42.702;23.178;2023-01-23T17:46:10;11.00;;;8.60;;
11010;SDS011;5558;42.702;23.178;2023-01-23T17:48:45;10.07;;;8.63;;
11010;SDS011;5558;42.702;23.178;2023-01-23T17:51:14;10.83;;;9.07;;
11010;SDS011;5558;42.702;23.178;2023-01-23T17:53:43;9.70;;;7.90;;
11010;SDS011;5558;42.702;23.178;2023-01-23T17:56:10;9.30;;;8.10;;
11010;SDS011;5558;42.702;23.178;2023-01-23T17:58:37;11.10;;;8.10;;
11010;SDS011;5558;42.702;23.178;2023-01-23T18:01:08;9.23;;;7.57;;
11010;SDS011;5558;42.702;23.178;2023-01-23T18:03:42;8.77;;;7.40;;
11010;SDS011;5558;42.702;23.178;2023-01-23T18:06:09;8.87;;;6.90;;
11010;SDS011;5558;42.702;23.178;2023-01-23T18:08:36;8.20;;;6.87;;
11010;SDS011;5558;42.702;23.178;2023-01-23T18:11:07;9.53;;;8.00;;
11010;SDS011;5558;42.702;23.178;2023-01-23T18:13:42;9.67;;;7.60;;
11010;SDS011;5558;42.702;23.178;2023-01-23T18:16:19;11.47;;;8.10;;
11010;SDS011;5558;42.702;23.178;2023-01-23T18:18:50;10.77;;;7.70;;
11010;SDS011;5558;42.702;23.178;2023-01-23T18:21:24;10.20;;;8.27;;
11010;SDS011;5558;42.702;23.178;2023-01-23T18:23:51;10.23;;;7.70;;
11010;SDS011;5558;42.702;23.178;2023-01-23T18:26:23;8.43;;;7.17;;
11010;SDS011;5558;42.702;23.178;2023-01-23T18:29:05;9.80;;;7.23;;
11010;SDS011;5558;42.702;23.178;2023-01-23T18:31:48;8.40;;;7.20;;
11010;SDS011;5558;42.702;23.178;2023-01-23T18:34:39;9.37;;;7.37;;
11010;SDS011;5558;42.702;23.178;2023-01-23T18:37:14;9.00;;;7.17;;
11010;SDS011;5558;42.702;23.178;2023-01-23T18:39:57;7.90;;;6.50;;
11010;SDS011;5558;42.702;23.178;2023-01-23T18:42:31;8.53;;;6.50;;
11010;SDS011;5558;42.702;23.178;2023-01-23T18:45:04;8.20;;;6.40;;